Flight Track Log - Related Links

Times and Time Zones

All times are in EDT time to prevent confusion due to time zone crossing. See the BFF201 flight status page for this flight to view local times or setup timezone preferences in your user account.

Time Position Orientation Groundspeed Altitude Reporting Facility
EDT Latitude Longitude Course Direction KTS MPH feet Rate Location/Type
Wed 11:34:00 AM 69.8715 -67.4529 150° Southeast  Level FlightAware Approximate
Wed 11:35:00 AM 69.8154 -67.3604 150° Southeast  Level FlightAware Approximate
Wed 11:36:00 AM 69.7592 -67.2683 150° Southeast  Level FlightAware Approximate
Wed 11:37:00 AM 69.7029 -67.1768 151° Southeast  Level FlightAware Approximate
Wed 11:38:00 AM 69.6466 -67.0857 151° Southeast  Level FlightAware Approximate
Wed 11:39:00 AM 69.5902 -66.9951 151° Southeast  Level FlightAware Approximate
Wed 11:40:00 AM 69.5338 -66.9050 151° Southeast  Level FlightAware Approximate
Wed 11:41:00 AM 69.4774 -66.8153 151° Southeast  Level FlightAware Approximate
Wed 11:42:00 AM 69.4209 -66.7262 151° Southeast  Level FlightAware Approximate
Wed 11:43:00 AM 69.3643 -66.6375 151° Southeast  Level FlightAware Approximate
Wed 11:44:00 AM 69.3078 -66.5492 151° Southeast  Level FlightAware Approximate
Wed 11:45:00 AM 69.2511 -66.4615 151° Southeast  Level FlightAware Approximate
Wed 11:46:00 AM 69.1945 -66.3742 151° Southeast  Level FlightAware Approximate
Wed 11:47:00 AM 69.1377 -66.2873 151° Southeast  Level FlightAware Approximate
Wed 11:48:00 AM 69.0810 -66.2009 151° Southeast  Level FlightAware Approximate
Wed 11:49:00 AM 69.0242 -66.1149 152° Southeast  Level FlightAware Approximate
Wed 11:50:00 AM 68.9673 -66.0294 152° Southeast  Level FlightAware Approximate
Wed 11:51:00 AM 68.9104 -65.9443 152° Southeast  Level FlightAware Approximate
Wed 11:52:00 AM 68.8535 -65.8597 152° Southeast  Level FlightAware Approximate
Wed 11:53:00 AM 68.7965 -65.7755 152° Southeast  Level FlightAware Approximate
Wed 11:54:00 AM 68.7395 -65.6917 152° Southeast  Level FlightAware Approximate
Wed 11:55:00 AM 68.6824 -65.6083 152° Southeast  Level FlightAware Approximate
Wed 11:56:00 AM 68.6254 -65.5254 152° Southeast  Level FlightAware Approximate
Wed 11:57:00 AM 68.5682 -65.4429 152° Southeast  Level FlightAware Approximate
Wed 11:58:00 AM 68.5110 -65.3608 152° Southeast  Level FlightAware Approximate
Wed 11:59:00 AM 68.4538 -65.2791 152° Southeast  Level FlightAware Approximate
Wed 12:00:00 PM 68.3968 -65.1965 152° Southeast  Level FlightAware Approximate
Wed 12:01:00 PM 68.3399 -65.1135 152° Southeast  Level FlightAware Approximate
Wed 12:02:00 PM 68.2830 -65.0310 152° Southeast  Level FlightAware Approximate
Wed 12:03:00 PM 68.2257 -64.9507 154° Southeast  Level FlightAware Approximate
Wed 12:04:00 PM 68.1678 -64.8734 154° Southeast  Level FlightAware Approximate
Wed 12:05:00 PM 68.1099 -64.7965 154° Southeast  Level FlightAware Approximate
Wed 12:06:00 PM 68.0531 -64.7146 151° Southeast  Level FlightAware Approximate
Wed 12:07:00 PM 67.9964 -64.6320 151° Southeast  Level FlightAware Approximate
Wed 12:08:00 PM 67.9396 -64.5498 151° Southeast  Level FlightAware Approximate
Wed 12:09:00 PM 67.8823 -64.4706 153° Southeast  Level FlightAware Approximate
Wed 12:10:00 PM 67.8246 -64.3936 153° Southeast  Level FlightAware Approximate
Wed 12:11:00 PM 67.7669 -64.3169 153° Southeast  Level FlightAware Approximate
Wed 12:12:00 PM 67.7080 -64.2474 155° Southeast  Level FlightAware Approximate
Wed 12:13:00 PM 67.6509 -64.1679 150° Southeast  Level FlightAware Approximate
Wed 12:14:00 PM 67.5938 -64.0891 155° Southeast  Level FlightAware Approximate
Wed 12:15:00 PM 67.5458 -64.0314 155° Southeast  Level Estimated
Wed 12:16:00 PM 67.5458 -64.0314 155° Southeast  Level Estimated
Wed 12:17:00 PM 67.5458 -64.0314 155° Southeast  Level Estimated
Wed 12:18:00 PM 67.5458 -64.0314 155° Southeast  Level Estimated
Wed 12:19:00 PM 67.5458 -64.0314 155° Southeast  Level Estimated
Wed 12:20:00 PM 67.5458 -64.0314 155° Southeast  Level Estimated
Wed 12:21:00 PM 67.5458 -64.0314 155° Southeast  Level Estimated
Wed 12:22:00 PM 67.5458 -64.0314 155° Southeast  Level Estimated
Wed 12:23:00 PM 67.5458 -64.0314 155° Southeast  Level Estimated
Wed 12:24:00 PM 67.5458 -64.0314 155° Southeast  Level Estimated
Wed 12:25:00 PM 67.5458 -64.0314 155° Southeast  Level Estimated
Wed 12:26:00 PM 67.5458 -64.0314 155° Southeast  Level Estimated
Wed 12:27:00 PM 67.5458 -64.0314 155° Southeast  Level Estimated
Wed 12:28:00 PM 67.5458 -64.0314 155° Southeast  Level Estimated
Wed 12:29:00 PM 67.5458 -64.0314 155° Southeast  Level Estimated
Wed 12:30:00 PM 67.5458 -64.0314 155° Southeast  Level Estimated

Login

Don't have an account? Register now (free) for customized features, flight alerts, and more!